Las Vegas, Nevada
Traffic Map
Current Weather Conditions
Las Vegas, Nevada
Few Clouds
Few Clouds
80°
Feels Like: 80°
Wind Chill: 80° Ceiling: Unl
Heat Index: 80° Visibility: 10mi
Dew Point: 45° Wind: 8mph
Humidity: 29% Direction: 190° (S)
Pressure: 29.88in Gusts: 0mph
Raw Report DataKLAS 210756Z 19007KT 10SM FEW180 27/07 A2988 RMK AO2 SLP089 T02670072 403560233 $
Traffic Incident Summary
Active as of:
Severity:
Category:
InformationThere was an issue retrieving the traffic information for this location. Please try a different location or try again shortly.
Advertisements
Track Severe Weather on mobile